createdAt,value
2017-08-02T00:00:41.625Z,0
2017-08-02T00:01:50.721Z,0
2017-08-02T00:03:00.031Z,0
2017-08-02T00:04:09.129Z,0
2017-08-02T00:05:18.266Z,0
2017-08-02T00:06:27.288Z,0
2017-08-02T00:07:36.604Z,0
2017-08-02T00:08:45.618Z,0
2017-08-02T00:09:54.746Z,0
2017-08-02T00:11:04.010Z,0
2017-08-02T00:12:13.166Z,0
2017-08-02T00:13:22.440Z,0
2017-08-02T00:14:31.606Z,0
2017-08-02T00:15:40.694Z,0
2017-08-02T00:16:49.795Z,0
2017-08-02T00:17:58.999Z,0
2017-08-02T00:19:08.149Z,0
2017-08-02T00:20:17.715Z,0
2017-08-02T00:21:27.053Z,0
2017-08-02T00:22:36.187Z,0
2017-08-02T00:23:45.519Z,0
2017-08-02T00:24:54.480Z,0
2017-08-02T00:26:03.712Z,0
2017-08-02T00:27:12.998Z,0
2017-08-02T00:28:22.172Z,0
2017-08-02T00:29:31.424Z,0
2017-08-02T00:30:40.590Z,0
2017-08-02T00:31:49.741Z,0
2017-08-02T00:32:59.149Z,0
2017-08-02T00:34:08.329Z,0
2017-08-02T00:35:17.414Z,0
2017-08-02T00:36:26.657Z,0
2017-08-02T00:37:35.908Z,0
2017-08-02T00:38:45.083Z,0
2017-08-02T00:39:54.319Z,0
2017-08-02T00:41:03.510Z,0
2017-08-02T00:42:12.481Z,0
2017-08-02T00:43:21.445Z,0
2017-08-02T00:44:30.405Z,0
2017-08-02T00:45:39.365Z,0
2017-08-02T00:46:48.324Z,0
2017-08-02T00:47:57.284Z,0
2017-08-02T00:49:06.238Z,0
2017-08-02T00:50:15.202Z,0
2017-08-02T00:51:24.494Z,0
2017-08-02T00:52:33.454Z,0
2017-08-02T00:53:42.737Z,0
2017-08-02T00:54:51.699Z,0
2017-08-02T00:56:00.669Z,0
2017-08-02T00:57:09.660Z,0
2017-08-02T00:58:18.636Z,0
2017-08-02T00:59:27.616Z,0
2017-08-02T01:00:36.573Z,0
2017-08-02T01:01:45.530Z,0
2017-08-02T01:02:54.490Z,0
2017-08-02T01:04:03.442Z,0
2017-08-02T01:05:12.410Z,0
2017-08-02T01:06:21.374Z,0
2017-08-02T01:07:30.351Z,0
2017-08-02T01:08:39.315Z,0
2017-08-02T01:09:48.281Z,0
2017-08-02T01:10:57.563Z,0
2017-08-02T01:12:06.530Z,0
2017-08-02T01:13:15.500Z,0
2017-08-02T01:14:24.471Z,0
2017-08-02T01:15:33.430Z,0
2017-08-02T01:16:42.393Z,0
2017-08-02T01:17:51.350Z,0
2017-08-02T01:19:00.314Z,0
2017-08-02T01:20:09.271Z,0
2017-08-02T01:21:18.230Z,0
2017-08-02T01:22:27.198Z,0
2017-08-02T01:23:36.480Z,0
2017-08-02T01:24:45.461Z,0
2017-08-02T01:25:54.424Z,0
2017-08-02T01:27:03.390Z,0
2017-08-02T01:28:12.692Z,0
2017-08-02T01:29:21.645Z,0
2017-08-02T01:30:30.608Z,0
2017-08-02T01:31:39.568Z,0
2017-08-02T01:32:48.853Z,0
2017-08-02T01:33:57.811Z,0
2017-08-02T01:35:06.782Z,0
2017-08-02T01:36:15.743Z,0
2017-08-02T01:37:24.700Z,0
2017-08-02T01:38:33.670Z,0
2017-08-02T01:39:42.632Z,0
2017-08-02T01:40:51.904Z,0
2017-08-02T01:42:01.213Z,0
2017-08-02T01:43:10.215Z,0
2017-08-02T01:44:19.175Z,0
2017-08-02T01:45:28.460Z,0
2017-08-02T01:46:37.415Z,0
2017-08-02T01:47:46.382Z,0
2017-08-02T01:48:55.345Z,0
2017-08-02T01:50:04.307Z,0
2017-08-02T01:51:13.262Z,0
2017-08-02T01:52:22.228Z,0
2017-08-02T01:53:31.219Z,0
2017-08-02T01:54:40.179Z,0
2017-08-02T01:55:49.138Z,0
2017-08-02T01:56:58.114Z,0
2017-08-02T01:58:07.079Z,0
2017-08-02T01:59:16.043Z,0
2017-08-02T02:00:25.003Z,0
2017-08-02T02:01:33.983Z,0
2017-08-02T02:02:42.945Z,0
2017-08-02T02:03:52.558Z,0
2017-08-02T02:05:01.521Z,0
2017-08-02T02:06:10.480Z,0
2017-08-02T02:07:19.434Z,0
2017-08-02T02:08:28.399Z,0
2017-08-02T02:09:37.364Z,0
2017-08-02T02:10:46.327Z,0
2017-08-02T02:11:55.299Z,0
2017-08-02T02:13:04.257Z,0
2017-08-02T02:14:13.222Z,0
2017-08-02T02:15:22.839Z,0
2017-08-02T02:16:31.795Z,0
2017-08-02T02:17:40.760Z,0
2017-08-02T02:18:49.728Z,0
2017-08-02T02:19:58.698Z,0
2017-08-02T02:21:07.669Z,0
2017-08-02T02:22:16.643Z,0
2017-08-02T02:23:25.603Z,0
2017-08-02T02:24:34.575Z,0
2017-08-02T02:25:43.556Z,0
2017-08-02T02:26:52.530Z,0
2017-08-02T02:28:01.491Z,0
2017-08-02T02:29:10.450Z,0
2017-08-02T02:30:19.424Z,0
2017-08-02T02:31:28.376Z,0
2017-08-02T02:32:37.339Z,0
2017-08-02T02:33:46.626Z,0
2017-08-02T02:34:55.586Z,0
2017-08-02T02:36:04.542Z,0
2017-08-02T02:37:13.497Z,0
2017-08-02T02:38:22.457Z,0
2017-08-02T02:39:31.418Z,0
2017-08-02T02:40:40.381Z,0
2017-08-02T02:41:49.364Z,0
2017-08-02T02:42:58.327Z,0
2017-08-02T02:44:07.299Z,0
2017-08-02T02:45:16.597Z,0
2017-08-02T02:46:25.563Z,0
2017-08-02T02:47:34.533Z,0
2017-08-02T02:48:43.826Z,0
2017-08-02T02:49:52.793Z,0
2017-08-02T02:51:01.749Z,0
2017-08-02T02:52:10.712Z,0
2017-08-02T02:53:19.676Z,0
2017-08-02T02:54:28.637Z,0
2017-08-02T02:55:37.591Z,0
2017-08-02T02:56:46.554Z,0
2017-08-02T02:57:55.520Z,0
2017-08-02T02:59:04.485Z,0
2017-08-02T03:00:13.451Z,0
2017-08-02T03:01:22.407Z,0
2017-08-02T03:02:31.359Z,0
2017-08-02T03:03:40.642Z,0
2017-08-02T03:04:49.612Z,0
2017-08-02T03:05:58.579Z,0
2017-08-02T03:07:07.542Z,0
2017-08-02T03:08:16.502Z,0
2017-08-02T03:09:25.792Z,0
2017-08-02T03:10:34.753Z,0
2017-08-02T03:11:44.036Z,0
2017-08-02T03:12:53.001Z,0
2017-08-02T03:14:01.966Z,0
2017-08-02T03:15:10.932Z,0
2017-08-02T03:16:19.892Z,0
2017-08-02T03:17:28.851Z,0
2017-08-02T03:18:37.813Z,0
2017-08-02T03:19:46.770Z,0
2017-08-02T03:20:55.729Z,0
2017-08-02T03:22:05.012Z,0
2017-08-02T03:23:13.980Z,0
2017-08-02T03:24:22.944Z,0
2017-08-02T03:25:32.221Z,0
2017-08-02T03:26:41.178Z,0
2017-08-02T03:27:50.137Z,0
2017-08-02T03:28:59.101Z,0
2017-08-02T03:30:08.068Z,0
2017-08-02T03:31:17.051Z,0
2017-08-02T03:32:26.013Z,0
2017-08-02T03:33:35.299Z,0
2017-08-02T03:34:44.259Z,0
2017-08-02T03:35:53.233Z,0
2017-08-02T03:37:02.192Z,0
2017-08-02T03:38:11.149Z,0
2017-08-02T03:39:20.106Z,0
2017-08-02T03:40:29.074Z,0
2017-08-02T03:41:38.041Z,0
2017-08-02T03:42:46.993Z,0
2017-08-02T03:43:55.947Z,0
2017-08-02T03:45:04.911Z,0
2017-08-02T03:46:13.872Z,0
2017-08-02T03:47:22.829Z,0
2017-08-02T03:48:31.792Z,0
2017-08-02T03:49:40.744Z,0
2017-08-02T03:50:49.709Z,0
2017-08-02T03:51:58.671Z,0
2017-08-02T03:53:07.630Z,0
2017-08-02T03:54:16.594Z,0
2017-08-02T03:55:25.559Z,5
2017-08-02T03:56:34.523Z,5
2017-08-02T03:57:43.487Z,5
2017-08-02T03:58:52.776Z,5
2017-08-02T04:00:01.724Z,5
2017-08-02T04:01:10.690Z,5
2017-08-02T04:02:19.995Z,5
2017-08-02T04:03:29.285Z,5
2017-08-02T04:04:38.243Z,5
2017-08-02T04:05:47.200Z,5
2017-08-02T04:06:56.162Z,5
2017-08-02T04:08:05.117Z,5
2017-08-02T04:09:14.065Z,5
2017-08-02T04:10:23.030Z,5
2017-08-02T04:11:31.990Z,5
2017-08-02T04:12:40.965Z,5
2017-08-02T04:13:49.928Z,5
2017-08-02T04:14:58.892Z,5
2017-08-02T04:16:07.862Z,5
2017-08-02T04:17:16.821Z,5
2017-08-02T04:18:25.776Z,5
2017-08-02T04:19:34.735Z,5
2017-08-02T04:20:43.703Z,5
2017-08-02T04:21:52.988Z,5
2017-08-02T04:23:02.278Z,5
2017-08-02T04:24:11.250Z,5
2017-08-02T04:25:20.538Z,5
2017-08-02T04:26:29.503Z,5
2017-08-02T04:27:38.473Z,10
2017-08-02T04:28:47.433Z,10
2017-08-02T04:29:56.388Z,10
2017-08-02T04:31:05.347Z,10
2017-08-02T04:32:14.310Z,10
2017-08-02T04:33:23.269Z,10
2017-08-02T04:34:32.231Z,10
2017-08-02T04:35:41.197Z,10
2017-08-02T04:36:50.160Z,10
2017-08-02T04:37:59.124Z,5
2017-08-02T04:39:08.078Z,5
2017-08-02T04:40:17.041Z,5
2017-08-02T04:41:25.998Z,5
2017-08-02T04:42:34.965Z,5
2017-08-02T04:43:43.933Z,5
2017-08-02T04:44:52.898Z,10
2017-08-02T04:46:01.859Z,10
2017-08-02T04:47:10.813Z,10
2017-08-02T04:48:20.111Z,10
2017-08-02T04:49:29.069Z,10
2017-08-02T04:50:38.024Z,10
2017-08-02T04:51:47.007Z,10
2017-08-02T04:52:55.960Z,10
2017-08-02T04:54:04.917Z,10
2017-08-02T04:55:13.883Z,10
2017-08-02T04:56:22.841Z,10
2017-08-02T04:57:31.814Z,10
2017-08-02T04:58:40.785Z,10
2017-08-02T04:59:49.749Z,10
2017-08-02T05:00:58.716Z,10
2017-08-02T05:02:07.678Z,15
2017-08-02T05:03:16.637Z,15
2017-08-02T05:04:25.604Z,15
2017-08-02T05:05:34.557Z,15
2017-08-02T05:06:43.517Z,20
2017-08-02T05:07:52.799Z,20
2017-08-02T05:09:02.086Z,20
2017-08-02T05:10:11.072Z,20
2017-08-02T05:11:20.024Z,20
2017-08-02T05:12:29.304Z,20
2017-08-02T05:13:38.268Z,25
2017-08-02T05:14:47.875Z,25
2017-08-02T05:15:56.835Z,25
2017-08-02T05:17:05.809Z,25
2017-08-02T05:18:14.774Z,25
2017-08-02T05:19:23.737Z,20
2017-08-02T05:20:32.699Z,20
2017-08-02T05:21:41.657Z,20
2017-08-02T05:22:50.624Z,25
2017-08-02T05:23:59.577Z,30
2017-08-02T05:25:08.541Z,35
2017-08-02T05:26:17.509Z,35
2017-08-02T05:27:26.478Z,35
2017-08-02T05:28:35.450Z,30
2017-08-02T05:29:44.417Z,30
2017-08-02T05:30:53.728Z,30
2017-08-02T05:32:02.689Z,30
2017-08-02T05:33:11.639Z,30
2017-08-02T05:34:20.600Z,30
2017-08-02T05:35:29.892Z,30
2017-08-02T05:36:38.865Z,40
2017-08-02T05:37:48.148Z,35
2017-08-02T05:38:57.109Z,35
2017-08-02T05:40:06.069Z,35
2017-08-02T05:41:15.031Z,35
2017-08-02T05:42:23.990Z,40
2017-08-02T05:43:32.961Z,35
2017-08-02T05:44:42.260Z,35
2017-08-02T05:45:51.225Z,40
2017-08-02T05:47:00.189Z,35
2017-08-02T05:48:09.152Z,40
2017-08-02T05:49:18.112Z,35
2017-08-02T05:50:27.072Z,40
2017-08-02T05:51:36.044Z,40
2017-08-02T05:52:45.006Z,40
2017-08-02T05:53:54.086Z,40
2017-08-02T05:55:03.071Z,40
2017-08-02T05:56:12.030Z,40
2017-08-02T05:57:20.982Z,40
2017-08-02T05:58:29.932Z,35
2017-08-02T05:59:38.916Z,40
2017-08-02T06:00:47.865Z,40
2017-08-02T06:01:56.831Z,40
2017-08-02T06:03:05.800Z,40
2017-08-02T06:04:15.081Z,40
2017-08-02T06:05:24.053Z,40
2017-08-02T06:06:33.019Z,50
2017-08-02T06:07:41.979Z,50
2017-08-02T06:08:50.940Z,55
2017-08-02T06:10:00.220Z,60
2017-08-02T06:11:09.182Z,65
2017-08-02T06:12:18.150Z,60
2017-08-02T06:13:27.109Z,70
2017-08-02T06:14:36.148Z,70
2017-08-02T06:15:45.430Z,65
2017-08-02T06:16:54.738Z,60
2017-08-02T06:18:03.697Z,55
2017-08-02T06:19:12.669Z,55
2017-08-02T06:20:21.636Z,45
2017-08-02T06:21:30.594Z,45
2017-08-02T06:22:39.555Z,45
2017-08-02T06:23:48.517Z,45
2017-08-02T06:24:57.480Z,50
2017-08-02T06:26:06.452Z,50
2017-08-02T06:27:15.424Z,50
2017-08-02T06:28:24.394Z,50
2017-08-02T06:29:33.696Z,50
2017-08-02T06:30:42.661Z,60
2017-08-02T06:31:51.627Z,50
2017-08-02T06:33:00.585Z,55
2017-08-02T06:34:09.541Z,60
2017-08-02T06:35:18.511Z,55
2017-08-02T06:36:27.844Z,60
2017-08-02T06:37:36.936Z,60
2017-08-02T06:38:46.003Z,55
2017-08-02T06:39:55.108Z,55
2017-08-02T06:41:04.209Z,55
2017-08-02T06:42:13.374Z,50
2017-08-02T06:43:22.430Z,50
2017-08-02T06:44:31.618Z,55
2017-08-02T06:45:40.654Z,50
2017-08-02T06:46:49.710Z,50
2017-08-02T06:47:58.752Z,50
2017-08-02T06:49:07.917Z,50
2017-08-02T06:50:16.960Z,50
2017-08-02T06:51:26.026Z,45
2017-08-02T06:52:35.118Z,45
2017-08-02T06:53:44.550Z,45
2017-08-02T06:54:53.610Z,45
2017-08-02T06:56:02.576Z,40
2017-08-02T06:57:11.769Z,40
2017-08-02T06:58:20.843Z,45
2017-08-02T06:59:29.937Z,45
2017-08-02T07:00:39.121Z,45
2017-08-02T07:01:48.317Z,45
2017-08-02T07:02:57.427Z,45
2017-08-02T07:04:06.453Z,45
2017-08-02T07:05:15.527Z,45
2017-08-02T07:06:24.608Z,45
2017-08-02T07:07:33.656Z,45
2017-08-02T07:08:42.643Z,45
2017-08-02T07:09:52.103Z,45
2017-08-02T07:11:01.122Z,50
2017-08-02T07:12:10.222Z,40
2017-08-02T07:13:19.272Z,45
2017-08-02T07:14:28.265Z,45
2017-08-02T07:15:37.233Z,50
2017-08-02T07:16:46.263Z,60
2017-08-02T07:17:55.290Z,70
2017-08-02T07:19:04.631Z,55
2017-08-02T07:20:13.734Z,50
2017-08-02T07:21:22.704Z,50
2017-08-02T07:22:31.752Z,40
2017-08-02T07:23:40.785Z,50
2017-08-02T07:24:50.074Z,45
2017-08-02T07:25:59.155Z,45
2017-08-02T07:27:08.113Z,60
2017-08-02T07:28:17.077Z,65
2017-08-02T07:29:26.049Z,75
2017-08-02T07:30:35.016Z,75
2017-08-02T07:31:44.075Z,75
2017-08-02T07:32:53.092Z,70
2017-08-02T07:34:02.153Z,80
2017-08-02T07:35:11.683Z,90
2017-08-02T07:36:20.745Z,95
2017-08-02T07:37:29.768Z,90
2017-08-02T07:38:38.729Z,95
2017-08-02T07:39:47.703Z,100
2017-08-02T07:40:56.987Z,95
2017-08-02T07:42:05.947Z,90
2017-08-02T07:43:14.913Z,90
2017-08-02T07:44:23.875Z,85
2017-08-02T07:45:32.842Z,75
2017-08-02T07:46:41.799Z,80
2017-08-02T07:47:50.762Z,80
2017-08-02T07:48:59.726Z,85
2017-08-02T07:50:08.695Z,85
2017-08-02T07:51:17.664Z,80
2017-08-02T07:52:26.625Z,85
2017-08-02T07:53:35.587Z,80
2017-08-02T07:54:44.561Z,80
2017-08-02T07:55:53.547Z,70
2017-08-02T07:57:02.520Z,75
2017-08-02T07:58:11.479Z,75
2017-08-02T07:59:20.440Z,90
2017-08-02T08:00:29.398Z,75
2017-08-02T08:01:38.684Z,75
2017-08-02T08:02:47.658Z,85
2017-08-02T08:03:56.615Z,85
2017-08-02T08:05:05.581Z,80
2017-08-02T08:06:14.541Z,70
2017-08-02T08:07:23.502Z,80
2017-08-02T08:08:32.482Z,85
2017-08-02T08:09:41.439Z,95
2017-08-02T08:10:50.399Z,95
2017-08-02T08:11:59.365Z,95
2017-08-02T08:13:08.323Z,90
2017-08-02T08:14:17.287Z,80
2017-08-02T08:15:26.255Z,80
2017-08-02T08:16:35.226Z,90
2017-08-02T08:17:44.188Z,110
2017-08-02T08:18:53.150Z,105
2017-08-02T08:20:02.438Z,100
2017-08-02T08:21:11.400Z,90
2017-08-02T08:22:20.361Z,105
2017-08-02T08:23:29.324Z,110
2017-08-02T08:24:38.288Z,95
2017-08-02T08:25:47.256Z,70
2017-08-02T08:26:57.433Z,70
2017-08-02T08:28:07.700Z,90
2017-08-02T08:29:16.666Z,70
2017-08-02T08:30:25.631Z,65
2017-08-02T08:31:34.591Z,65
2017-08-02T08:32:43.558Z,65
2017-08-02T08:33:52.524Z,70
2017-08-02T08:35:01.486Z,70
2017-08-02T08:36:10.444Z,70
2017-08-02T08:37:19.403Z,75
2017-08-02T08:38:28.366Z,70
2017-08-02T08:39:37.325Z,60
2017-08-02T08:40:46.283Z,60
2017-08-02T08:41:55.253Z,55
2017-08-02T08:43:04.214Z,55
2017-08-02T08:44:13.176Z,55
2017-08-02T08:45:22.144Z,70
2017-08-02T08:46:31.115Z,70
2017-08-02T08:47:40.082Z,80
2017-08-02T08:48:49.365Z,70
2017-08-02T08:49:58.333Z,80
2017-08-02T08:51:07.300Z,60
2017-08-02T08:52:16.263Z,55
2017-08-02T08:53:26.205Z,60
2017-08-02T08:54:35.177Z,65
2017-08-02T08:55:44.141Z,85
2017-08-02T08:56:53.100Z,65
2017-08-02T08:58:02.058Z,55
2017-08-02T08:59:11.048Z,50
2017-08-02T09:00:20.020Z,50
2017-08-02T09:01:28.995Z,55
2017-08-02T09:02:37.960Z,55
2017-08-02T09:03:46.927Z,65
2017-08-02T09:04:55.903Z,65
2017-08-02T09:06:04.862Z,75
2017-08-02T09:07:13.829Z,115
2017-08-02T09:08:22.784Z,80
2017-08-02T09:09:31.756Z,100
2017-08-02T09:10:40.722Z,100
2017-08-02T09:11:49.681Z,110
2017-08-02T09:12:58.647Z,100
2017-08-02T09:14:07.611Z,105
2017-08-02T09:15:16.581Z,100
2017-08-02T09:16:25.872Z,100
2017-08-02T09:17:34.840Z,95
2017-08-02T09:18:43.802Z,95
2017-08-02T09:19:52.760Z,100
2017-08-02T09:21:01.724Z,100
2017-08-02T09:22:10.687Z,105
2017-08-02T09:23:19.653Z,100
2017-08-02T09:24:28.613Z,105
2017-08-02T09:25:37.575Z,100
2017-08-02T09:26:46.537Z,100
2017-08-02T09:27:55.496Z,95
2017-08-02T09:29:04.455Z,85
2017-08-02T09:30:13.420Z,70
2017-08-02T09:31:22.392Z,70
2017-08-02T09:32:31.357Z,65
2017-08-02T09:33:40.326Z,60
2017-08-02T09:34:49.313Z,55
2017-08-02T09:35:58.274Z,45
2017-08-02T09:37:07.230Z,45
2017-08-02T09:38:16.207Z,40
2017-08-02T09:39:25.492Z,40
2017-08-02T09:40:34.515Z,50
2017-08-02T09:41:43.478Z,80
2017-08-02T09:42:52.433Z,60
2017-08-02T09:44:01.389Z,100
2017-08-02T09:45:10.681Z,75
2017-08-02T09:46:19.971Z,70
2017-08-02T09:47:28.934Z,70
2017-08-02T09:48:37.915Z,65
2017-08-02T09:49:47.193Z,90
2017-08-02T09:50:57.162Z,85
2017-08-02T09:52:06.134Z,100
2017-08-02T09:53:15.096Z,95
2017-08-02T09:54:24.060Z,100
2017-08-02T09:55:33.346Z,125
2017-08-02T09:56:42.317Z,115
2017-08-02T09:57:51.282Z,120
2017-08-02T09:59:00.714Z,115
2017-08-02T10:00:09.717Z,120
2017-08-02T10:01:19.016Z,110
2017-08-02T10:02:27.989Z,110
2017-08-02T10:03:36.953Z,115
2017-08-02T10:04:45.923Z,110
2017-08-02T10:05:54.896Z,105
2017-08-02T10:07:04.190Z,100
2017-08-02T10:08:13.157Z,90
2017-08-02T10:09:22.112Z,95
2017-08-02T10:10:31.078Z,90
2017-08-02T10:11:40.045Z,90
2017-08-02T10:12:49.022Z,100
2017-08-02T10:13:58.011Z,105
2017-08-02T10:15:07.307Z,85
2017-08-02T10:16:16.268Z,95
2017-08-02T10:17:25.234Z,120
2017-08-02T10:18:34.202Z,125
2017-08-02T10:19:43.172Z,110
2017-08-02T10:20:52.468Z,95
2017-08-02T10:22:01.435Z,95
2017-08-02T10:23:10.396Z,95
2017-08-02T10:24:19.373Z,100
2017-08-02T10:25:28.337Z,80
2017-08-02T10:26:37.314Z,85
2017-08-02T10:27:46.294Z,85
2017-08-02T10:28:55.258Z,85
2017-08-02T10:30:04.553Z,65
2017-08-02T10:31:13.515Z,60
2017-08-02T10:32:22.479Z,60
2017-08-02T10:33:31.439Z,65
2017-08-02T10:34:40.407Z,80
2017-08-02T10:35:49.368Z,90
2017-08-02T10:36:58.332Z,75
2017-08-02T10:38:07.289Z,70
2017-08-02T10:39:16.256Z,50
2017-08-02T10:40:25.538Z,50
2017-08-02T10:41:34.503Z,55
2017-08-02T10:42:43.461Z,65
2017-08-02T10:43:52.417Z,70
2017-08-02T10:45:01.388Z,75
2017-08-02T10:46:11.493Z,90
2017-08-02T10:47:20.974Z,95
2017-08-02T10:48:30.260Z,110
2017-08-02T10:49:39.234Z,100
2017-08-02T10:50:48.193Z,100
2017-08-02T10:51:57.156Z,95
2017-08-02T10:53:06.119Z,110
2017-08-02T10:54:15.079Z,110
2017-08-02T10:55:24.378Z,100
2017-08-02T10:56:33.354Z,100
2017-08-02T10:57:42.316Z,100
2017-08-02T10:58:51.280Z,100
2017-08-02T11:00:00.238Z,105
2017-08-02T11:01:09.200Z,85
2017-08-02T11:02:18.485Z,75
2017-08-02T11:03:27.509Z,80
2017-08-02T11:04:36.485Z,100
2017-08-02T11:05:45.458Z,115
2017-08-02T11:06:54.478Z,85
2017-08-02T11:08:03.456Z,75
2017-08-02T11:09:12.419Z,60
2017-08-02T11:10:21.430Z,70
2017-08-02T11:11:30.395Z,65
2017-08-02T11:12:39.357Z,80
2017-08-02T11:13:48.653Z,70
2017-08-02T11:14:57.619Z,65
2017-08-02T11:16:06.585Z,85
2017-08-02T11:17:15.959Z,100
2017-08-02T11:18:24.920Z,105
2017-08-02T11:19:33.897Z,90
2017-08-02T11:20:43.185Z,80
2017-08-02T11:21:52.149Z,70
2017-08-02T11:23:01.116Z,75
2017-08-02T11:24:10.735Z,65
2017-08-02T11:25:20.020Z,60
2017-08-02T11:26:28.980Z,75
2017-08-02T11:27:37.936Z,75
2017-08-02T11:28:46.897Z,70
2017-08-02T11:29:55.863Z,75
2017-08-02T11:31:04.834Z,85
2017-08-02T11:32:13.794Z,85
2017-08-02T11:33:22.752Z,75
2017-08-02T11:34:31.710Z,90
2017-08-02T11:35:40.677Z,100
2017-08-02T11:36:49.640Z,100
2017-08-02T11:37:58.601Z,105
2017-08-02T11:39:07.569Z,85
2017-08-02T11:40:16.532Z,85
2017-08-02T11:41:25.533Z,110
2017-08-02T11:42:34.494Z,120
2017-08-02T11:43:43.451Z,95
2017-08-02T11:44:52.443Z,85
2017-08-02T11:46:01.407Z,95
2017-08-02T11:47:10.397Z,85
2017-08-02T11:48:19.682Z,65
2017-08-02T11:49:28.642Z,55
2017-08-02T11:50:37.620Z,55
2017-08-02T11:51:46.578Z,65
2017-08-02T11:52:55.863Z,80
2017-08-02T11:54:04.867Z,90
2017-08-02T11:55:13.837Z,100
2017-08-02T11:56:22.807Z,110
2017-08-02T11:57:31.763Z,100
2017-08-02T11:58:40.719Z,110
2017-08-02T11:59:49.686Z,100
2017-08-02T12:00:58.665Z,85
2017-08-02T12:02:07.627Z,85
2017-08-02T12:03:16.591Z,100
2017-08-02T12:04:25.587Z,95
2017-08-02T12:05:34.545Z,85
2017-08-02T12:06:43.837Z,95
2017-08-02T12:07:52.803Z,85
2017-08-02T12:09:01.774Z,85
2017-08-02T12:10:11.067Z,85
2017-08-02T12:11:20.035Z,90
2017-08-02T12:12:29.005Z,90
2017-08-02T12:13:37.980Z,90
2017-08-02T12:14:46.953Z,95
2017-08-02T12:15:55.916Z,100
2017-08-02T12:17:04.883Z,95
2017-08-02T12:18:13.959Z,95
2017-08-02T12:19:23.018Z,90
2017-08-02T12:20:32.473Z,90
2017-08-02T12:21:41.930Z,105
2017-08-02T12:22:50.988Z,90
2017-08-02T12:24:00.019Z,90
2017-08-02T12:25:09.061Z,80
2017-08-02T12:26:18.028Z,75
2017-08-02T12:27:26.987Z,70
2017-08-02T12:28:36.380Z,75
2017-08-02T12:29:45.561Z,80
2017-08-02T12:30:54.691Z,75
2017-08-02T12:32:04.164Z,70
2017-08-02T12:33:13.130Z,75
2017-08-02T12:34:22.093Z,75
2017-08-02T12:35:31.177Z,80
2017-08-02T12:36:40.466Z,80
2017-08-02T12:37:49.761Z,85
2017-08-02T12:38:59.250Z,85
2017-08-02T12:40:08.223Z,90
2017-08-02T12:41:17.191Z,90
2017-08-02T12:42:26.162Z,90
2017-08-02T12:43:35.558Z,90
2017-08-02T12:44:44.561Z,85
2017-08-02T12:45:53.547Z,80
2017-08-02T12:47:02.545Z,85
2017-08-02T12:48:11.538Z,90
2017-08-02T12:49:20.524Z,95
2017-08-02T12:50:29.507Z,90
2017-08-02T12:51:38.494Z,90
2017-08-02T12:52:47.483Z,90
2017-08-02T12:53:56.471Z,85
2017-08-02T12:55:05.453Z,90
2017-08-02T12:56:14.444Z,85
2017-08-02T12:57:23.435Z,80
2017-08-02T12:58:32.420Z,70
2017-08-02T12:59:41.402Z,70
2017-08-02T13:00:50.389Z,65
2017-08-02T13:01:59.381Z,65
2017-08-02T13:03:08.368Z,70
2017-08-02T13:04:17.352Z,80
2017-08-02T13:05:26.336Z,80
2017-08-02T13:06:35.322Z,80
2017-08-02T13:07:44.390Z,75
2017-08-02T13:08:53.378Z,70
2017-08-02T13:10:02.369Z,70
2017-08-02T13:11:11.358Z,75
2017-08-02T13:12:20.352Z,75
2017-08-02T13:13:29.341Z,75
2017-08-02T13:14:38.337Z,75
2017-08-02T13:15:47.329Z,70
2017-08-02T13:16:56.320Z,65
2017-08-02T13:18:05.314Z,65
2017-08-02T13:19:14.393Z,65
2017-08-02T13:20:23.380Z,60
2017-08-02T13:21:32.380Z,60
2017-08-02T13:22:41.702Z,60
2017-08-02T13:23:50.682Z,65
2017-08-02T13:24:59.633Z,65
2017-08-02T13:26:08.596Z,75
2017-08-02T13:27:17.564Z,80
2017-08-02T13:28:26.525Z,80
2017-08-02T13:29:35.495Z,70
2017-08-02T13:30:44.462Z,75
2017-08-02T13:31:53.752Z,75
2017-08-02T13:33:02.716Z,70
2017-08-02T13:34:11.688Z,70
2017-08-02T13:35:20.656Z,70
2017-08-02T13:36:29.616Z,65
2017-08-02T13:37:38.580Z,60
2017-08-02T13:38:47.539Z,65
2017-08-02T13:39:56.514Z,65
2017-08-02T13:41:05.479Z,70
2017-08-02T13:42:14.778Z,75
2017-08-02T13:43:23.745Z,70
2017-08-02T13:44:33.035Z,85
2017-08-02T13:45:42.001Z,95
2017-08-02T13:46:50.962Z,85
2017-08-02T13:47:59.922Z,95
2017-08-02T13:49:08.901Z,110
2017-08-02T13:50:17.881Z,100
2017-08-02T13:51:26.859Z,85
2017-08-02T13:52:36.153Z,80
2017-08-02T13:53:45.116Z,75
2017-08-02T13:54:54.397Z,75
2017-08-02T13:56:03.380Z,85
2017-08-02T13:57:12.351Z,85
2017-08-02T13:58:21.320Z,65
2017-08-02T13:59:30.610Z,60
2017-08-02T14:00:39.575Z,60
2017-08-02T14:01:48.538Z,60
2017-08-02T14:02:57.498Z,60
2017-08-02T14:04:06.466Z,70
2017-08-02T14:05:15.435Z,90
2017-08-02T14:06:24.395Z,80
2017-08-02T14:07:33.360Z,85
2017-08-02T14:08:42.325Z,80
2017-08-02T14:09:51.290Z,90
2017-08-02T14:11:00.261Z,65
2017-08-02T14:12:09.883Z,65
2017-08-02T14:13:18.843Z,60
2017-08-02T14:14:28.128Z,45
2017-08-02T14:15:37.083Z,55
2017-08-02T14:16:46.045Z,70
2017-08-02T14:17:55.004Z,70
2017-08-02T14:19:03.982Z,70
2017-08-02T14:20:12.953Z,65
2017-08-02T14:21:21.911Z,60
2017-08-02T14:22:30.880Z,45
2017-08-02T14:23:39.848Z,50
2017-08-02T14:24:48.814Z,45
2017-08-02T14:25:57.774Z,40
2017-08-02T14:27:06.736Z,55
2017-08-02T14:28:15.706Z,70
2017-08-02T14:29:24.674Z,70
2017-08-02T14:30:33.725Z,70
2017-08-02T14:31:42.689Z,70
2017-08-02T14:32:51.656Z,70
2017-08-02T14:34:00.626Z,70
2017-08-02T14:35:09.595Z,60
2017-08-02T14:36:18.830Z,60
2017-08-02T14:37:27.947Z,50
2017-08-02T14:38:37.039Z,55
2017-08-02T14:39:46.010Z,50
2017-08-02T14:40:54.975Z,45
2017-08-02T14:42:04.149Z,40
2017-08-02T14:43:13.204Z,60
2017-08-02T14:44:22.162Z,55
2017-08-02T14:45:31.549Z,50
2017-08-02T14:46:40.603Z,40
2017-08-02T14:47:49.618Z,35
2017-08-02T14:48:59.151Z,40
2017-08-02T14:50:08.152Z,40
2017-08-02T14:51:17.149Z,50
2017-08-02T14:52:26.200Z,60
2017-08-02T14:53:35.191Z,60
2017-08-02T14:54:44.276Z,70
2017-08-02T14:55:53.389Z,70
2017-08-02T14:57:02.351Z,65
2017-08-02T14:58:11.336Z,65
2017-08-02T14:59:20.333Z,55
2017-08-02T15:00:29.314Z,50
2017-08-02T15:01:38.281Z,40
2017-08-02T15:02:47.238Z,40
2017-08-02T15:03:56.216Z,35
2017-08-02T15:05:05.505Z,30
2017-08-02T15:06:14.478Z,35
2017-08-02T15:07:23.452Z,50
2017-08-02T15:08:32.446Z,55
2017-08-02T15:09:41.439Z,55
2017-08-02T15:10:50.404Z,55
2017-08-02T15:11:59.360Z,55
2017-08-02T15:13:08.316Z,55
2017-08-02T15:14:17.335Z,55
2017-08-02T15:15:26.293Z,55
2017-08-02T15:16:35.265Z,50
2017-08-02T15:17:44.223Z,40
2017-08-02T15:18:53.186Z,40
2017-08-02T15:20:02.472Z,40
2017-08-02T15:21:11.430Z,35
2017-08-02T15:22:20.395Z,35
2017-08-02T15:23:29.363Z,30
2017-08-02T15:24:38.330Z,25
2017-08-02T15:25:47.293Z,25
2017-08-02T15:26:56.263Z,25
2017-08-02T15:28:05.230Z,20
2017-08-02T15:29:14.196Z,30
2017-08-02T15:30:23.148Z,35
2017-08-02T15:31:32.120Z,45
2017-08-02T15:32:41.084Z,50
2017-08-02T15:33:50.047Z,50
2017-08-02T15:34:59.002Z,55
2017-08-02T15:36:07.967Z,55
2017-08-02T15:37:16.939Z,50
2017-08-02T15:38:25.916Z,55
2017-08-02T15:39:35.217Z,50
2017-08-02T15:40:44.170Z,40
2017-08-02T15:41:53.126Z,45
2017-08-02T15:43:02.087Z,45
2017-08-02T15:44:11.046Z,35
2017-08-02T15:45:20.005Z,35
2017-08-02T15:46:28.964Z,35
2017-08-02T15:47:37.951Z,35
2017-08-02T15:48:47.234Z,35
2017-08-02T15:49:56.191Z,35
2017-08-02T15:51:05.156Z,30
2017-08-02T15:52:14.147Z,30
2017-08-02T15:53:23.125Z,35
2017-08-02T15:54:32.095Z,35
2017-08-02T15:55:41.094Z,35
2017-08-02T15:56:50.142Z,35
2017-08-02T15:57:59.096Z,35
2017-08-02T15:59:08.064Z,35
2017-08-02T16:00:17.026Z,35
2017-08-02T16:01:25.989Z,35
2017-08-02T16:02:34.957Z,35
2017-08-02T16:03:43.919Z,35
2017-08-02T16:04:53.208Z,35
2017-08-02T16:06:02.175Z,30
2017-08-02T16:07:11.131Z,20
2017-08-02T16:08:20.099Z,20
2017-08-02T16:09:29.064Z,20
2017-08-02T16:10:38.024Z,30
2017-08-02T16:11:47.033Z,35
2017-08-02T16:12:56.015Z,35
2017-08-02T16:14:04.991Z,35
2017-08-02T16:15:13.961Z,35
2017-08-02T16:16:22.938Z,35
2017-08-02T16:17:31.908Z,35
2017-08-02T16:18:41.190Z,35
2017-08-02T16:19:50.142Z,25
2017-08-02T16:20:59.429Z,20
2017-08-02T16:22:08.731Z,25
2017-08-02T16:23:17.694Z,20
2017-08-02T16:24:26.651Z,25
2017-08-02T16:25:35.614Z,15
2017-08-02T16:26:44.906Z,15
2017-08-02T16:27:53.872Z,20
2017-08-02T16:29:02.835Z,20
2017-08-02T16:30:11.796Z,25
2017-08-02T16:31:20.768Z,25